createdAt,value
2019-03-05T00:00:53.057Z,0.00
2019-03-05T00:01:53.019Z,0.00
2019-03-05T00:02:53.009Z,0.00
2019-03-05T00:03:53.008Z,0.00
2019-03-05T00:04:52.986Z,0.00
2019-03-05T00:05:52.990Z,0.00
2019-03-05T00:06:52.962Z,0.00
2019-03-05T00:07:52.977Z,0.00
2019-03-05T00:08:52.941Z,0.00
2019-03-05T00:09:52.939Z,0.00
2019-03-05T00:10:52.944Z,0.00
2019-03-05T00:11:52.904Z,0.00
2019-03-05T00:12:52.898Z,0.00
2019-03-05T00:13:52.884Z,0.00
2019-03-05T00:14:52.879Z,0.00
2019-03-05T00:15:52.897Z,0.00
2019-03-05T00:16:52.853Z,0.00
2019-03-05T00:17:52.846Z,0.00
2019-03-05T00:18:52.829Z,0.00
2019-03-05T00:19:52.820Z,0.00
2019-03-05T00:20:52.816Z,0.00
2019-03-05T00:21:52.817Z,0.00
2019-03-05T00:22:52.809Z,0.00
2019-03-05T00:23:52.775Z,0.00
2019-03-05T00:24:52.761Z,0.00
2019-03-05T00:25:52.750Z,0.00
2019-03-05T00:26:52.755Z,0.00
2019-03-05T00:27:52.725Z,0.00
2019-03-05T00:28:52.717Z,0.00
2019-03-05T00:29:52.709Z,0.00
2019-03-05T00:30:52.704Z,0.00
2019-03-05T00:31:52.709Z,0.00
2019-03-05T00:32:52.675Z,0.00
2019-03-05T00:33:52.663Z,0.00
2019-03-05T00:34:52.662Z,0.00
2019-03-05T00:35:52.637Z,0.00
2019-03-05T00:36:52.651Z,0.00
2019-03-05T00:37:52.619Z,0.00
2019-03-05T00:38:52.615Z,0.00
2019-03-05T00:39:52.597Z,0.00
2019-03-05T00:40:52.584Z,0.00
2019-03-05T00:41:52.606Z,0.00
2019-03-05T00:42:52.573Z,0.00
2019-03-05T00:43:52.555Z,0.00
2019-03-05T00:44:52.552Z,0.00
2019-03-05T00:45:52.526Z,0.00
2019-03-05T00:46:52.518Z,0.00
2019-03-05T00:47:52.530Z,0.00
2019-03-05T00:48:52.491Z,0.00
2019-03-05T00:49:52.488Z,0.00
2019-03-05T00:50:52.470Z,0.00
2019-03-05T00:51:52.468Z,0.00
2019-03-05T00:52:52.467Z,0.00
2019-03-05T00:53:52.453Z,0.00
2019-03-05T00:54:52.429Z,0.00
2019-03-05T00:55:52.433Z,0.00
2019-03-05T00:56:52.405Z,0.00
2019-03-05T00:57:52.413Z,0.00
2019-03-05T00:58:52.397Z,0.00
2019-03-05T00:59:52.374Z,0.00
2019-03-05T01:00:52.430Z,0.00
2019-03-05T01:01:52.361Z,0.00
2019-03-05T01:02:52.339Z,0.00
2019-03-05T01:03:52.357Z,0.00
2019-03-05T01:04:52.315Z,0.00
2019-03-05T01:05:52.300Z,0.00
2019-03-05T01:06:52.299Z,0.00
2019-03-05T01:07:52.277Z,0.00
2019-03-05T01:08:52.311Z,0.00
2019-03-05T01:09:52.258Z,0.00
2019-03-05T01:10:52.254Z,0.00
2019-03-05T01:11:52.237Z,0.00
2019-03-05T01:12:52.225Z,0.00
2019-03-05T01:13:52.233Z,0.00
2019-03-05T01:14:52.198Z,0.00
2019-03-05T01:15:52.191Z,0.00
2019-03-05T01:16:52.189Z,0.00
2019-03-05T01:17:52.171Z,0.00
2019-03-05T01:18:52.176Z,0.00
2019-03-05T01:19:52.146Z,0.00
2019-03-05T01:20:52.137Z,0.00
2019-03-05T01:21:52.124Z,0.00
2019-03-05T01:22:52.109Z,0.00
2019-03-05T01:23:52.127Z,0.00
2019-03-05T01:24:52.099Z,0.00
2019-03-05T01:25:52.079Z,0.00
2019-03-05T01:26:52.064Z,0.00
2019-03-05T01:27:52.055Z,0.00
2019-03-05T01:28:52.072Z,0.00
2019-03-05T01:29:52.049Z,0.00
2019-03-05T01:30:52.023Z,0.00
2019-03-05T01:31:52.016Z,0.00
2019-03-05T01:32:51.999Z,0.00
2019-03-05T01:33:51.992Z,0.00
2019-03-05T01:34:52.008Z,0.00
2019-03-05T01:35:51.995Z,0.00
2019-03-05T01:36:51.960Z,0.00
2019-03-05T01:37:51.947Z,0.00
2019-03-05T01:38:51.930Z,0.00
2019-03-05T01:39:51.940Z,0.00
2019-03-05T01:40:51.913Z,0.00
2019-03-05T01:41:51.903Z,0.00
2019-03-05T01:42:51.887Z,0.00
2019-03-05T01:43:51.879Z,0.00
2019-03-05T01:44:51.900Z,0.00
2019-03-05T01:45:51.855Z,0.00
2019-03-05T01:46:51.848Z,0.00
2019-03-05T01:47:51.843Z,0.00
2019-03-05T01:48:51.825Z,0.00
2019-03-05T01:49:51.841Z,0.00
2019-03-05T01:50:51.802Z,0.00
2019-03-05T01:51:51.790Z,0.00
2019-03-05T01:52:51.785Z,0.00
2019-03-05T01:53:51.783Z,0.00
2019-03-05T01:54:51.755Z,0.00
2019-03-05T01:55:51.756Z,0.00
2019-03-05T01:56:51.734Z,0.00
2019-03-05T01:57:51.720Z,0.00
2019-03-05T01:58:51.714Z,0.00
2019-03-05T01:59:51.699Z,0.00
2019-03-05T02:00:51.714Z,0.00
2019-03-05T02:01:51.677Z,0.00
2019-03-05T02:02:51.668Z,0.00
2019-03-05T02:03:51.654Z,0.00
2019-03-05T02:04:51.656Z,0.00
2019-03-05T02:05:51.654Z,0.00
2019-03-05T02:06:51.619Z,0.00
2019-03-05T02:07:51.608Z,0.00
2019-03-05T02:08:51.600Z,0.00
2019-03-05T02:09:51.591Z,0.00
2019-03-05T02:10:51.596Z,0.00
2019-03-05T02:11:51.566Z,0.00
2019-03-05T02:12:51.553Z,0.00
2019-03-05T02:13:51.543Z,0.00
2019-03-05T02:14:51.530Z,0.00
2019-03-05T02:15:51.552Z,0.00
2019-03-05T02:16:51.508Z,0.00
2019-03-05T02:17:51.493Z,0.00
2019-03-05T02:18:51.486Z,0.00
2019-03-05T02:19:51.479Z,0.00
2019-03-05T02:20:51.464Z,0.00
2019-03-05T02:21:51.467Z,0.00
2019-03-05T02:22:51.442Z,0.00
2019-03-05T02:23:51.429Z,0.00
2019-03-05T02:24:51.423Z,0.00
2019-03-05T02:25:51.414Z,0.00
2019-03-05T02:26:51.420Z,0.00
2019-03-05T02:27:51.392Z,0.00
2019-03-05T02:28:51.375Z,0.00
2019-03-05T02:29:51.365Z,0.00
2019-03-05T02:30:51.360Z,0.00
2019-03-05T02:31:51.367Z,0.00
2019-03-05T02:32:51.339Z,0.00
2019-03-05T02:33:51.316Z,0.00
2019-03-05T02:34:51.308Z,0.00
2019-03-05T02:35:51.302Z,0.00
2019-03-05T02:36:51.319Z,0.00
2019-03-05T02:37:51.277Z,0.00
2019-03-05T02:38:51.273Z,0.00
2019-03-05T02:39:51.251Z,0.00
2019-03-05T02:40:51.246Z,0.00
2019-03-05T02:41:51.259Z,0.00
2019-03-05T02:42:51.219Z,0.00
2019-03-05T02:43:51.211Z,0.00
2019-03-05T02:44:51.202Z,0.00
2019-03-05T02:45:51.180Z,0.00
2019-03-05T02:46:51.172Z,0.00
2019-03-05T02:47:51.279Z,0.00
2019-03-05T02:48:51.154Z,0.00
2019-03-05T02:49:51.149Z,0.00
2019-03-05T02:50:51.147Z,0.00
2019-03-05T02:51:51.121Z,0.00
2019-03-05T02:52:51.123Z,0.00
2019-03-05T02:53:51.092Z,0.00
2019-03-05T02:54:51.090Z,0.00
2019-03-05T02:55:51.086Z,0.00
2019-03-05T02:56:51.072Z,0.00
2019-03-05T02:57:51.081Z,0.00
2019-03-05T02:58:51.041Z,0.00
2019-03-05T02:59:51.030Z,0.00
2019-03-05T03:00:51.022Z,0.00
2019-03-05T03:01:51.008Z,0.00
2019-03-05T03:02:51.023Z,0.00
2019-03-05T03:03:50.998Z,0.00
2019-03-05T03:04:50.977Z,0.00
2019-03-05T03:05:50.963Z,0.00
2019-03-05T03:06:50.950Z,0.00
2019-03-05T03:07:50.968Z,0.00
2019-03-05T03:08:50.930Z,0.00
2019-03-05T03:09:50.916Z,0.00
2019-03-05T03:10:50.905Z,0.00
2019-03-05T03:11:50.905Z,0.00
2019-03-05T03:12:50.888Z,0.00
2019-03-05T03:13:50.907Z,0.00
2019-03-05T03:14:50.862Z,0.00
2019-03-05T03:15:50.850Z,0.00
2019-03-05T03:16:50.839Z,0.00
2019-03-05T03:17:50.832Z,0.00
2019-03-05T03:18:50.830Z,0.00
2019-03-05T03:19:50.813Z,0.00
2019-03-05T03:20:50.795Z,0.00
2019-03-05T03:21:50.783Z,0.00
2019-03-05T03:22:50.784Z,0.00
2019-03-05T03:23:50.785Z,0.00
2019-03-05T03:24:50.752Z,0.00
2019-03-05T03:25:50.744Z,0.00
2019-03-05T03:26:50.725Z,0.00
2019-03-05T03:27:50.748Z,0.00
2019-03-05T03:28:50.734Z,0.00
2019-03-05T03:29:50.694Z,0.00
2019-03-05T03:30:50.696Z,0.00
2019-03-05T03:31:50.668Z,0.00
2019-03-05T03:32:50.829Z,0.00
2019-03-05T03:33:50.668Z,0.00
2019-03-05T03:34:50.648Z,0.00
2019-03-05T03:35:50.638Z,0.00
2019-03-05T03:36:50.622Z,0.00
2019-03-05T03:37:50.608Z,0.00
2019-03-05T03:38:50.612Z,0.00
2019-03-05T03:39:50.582Z,0.00
2019-03-05T03:40:50.572Z,0.00
2019-03-05T03:41:50.570Z,0.00
2019-03-05T03:42:50.555Z,0.00
2019-03-05T03:43:50.662Z,0.00
2019-03-05T03:44:50.533Z,0.00
2019-03-05T03:45:50.525Z,0.00
2019-03-05T03:46:50.503Z,0.00
2019-03-05T03:47:50.497Z,0.00
2019-03-05T03:48:50.481Z,0.00
2019-03-05T03:49:50.486Z,0.00
2019-03-05T03:50:50.458Z,0.00
2019-03-05T03:51:51.531Z,0.00
2019-03-05T03:52:50.444Z,0.00
2019-03-05T03:53:50.428Z,0.00
2019-03-05T03:54:50.455Z,0.00
2019-03-05T03:55:50.408Z,0.00
2019-03-05T03:56:50.396Z,0.00
2019-03-05T03:57:50.391Z,0.00
2019-03-05T03:58:50.375Z,0.00
2019-03-05T03:59:50.380Z,0.00
2019-03-05T04:00:50.349Z,0.00
2019-03-05T04:01:50.346Z,0.00
2019-03-05T04:02:50.331Z,0.00
2019-03-05T04:03:50.310Z,0.00
2019-03-05T04:04:50.345Z,0.00
2019-03-05T04:05:50.305Z,0.00
2019-03-05T04:06:50.282Z,0.00
2019-03-05T04:07:50.277Z,0.00
2019-03-05T04:08:50.254Z,0.00
2019-03-05T04:09:50.244Z,0.00
2019-03-05T04:10:50.254Z,0.00
2019-03-05T04:11:50.230Z,0.00
2019-03-05T04:12:50.215Z,0.00
2019-03-05T04:13:50.198Z,0.00
2019-03-05T04:14:50.197Z,0.00
2019-03-05T04:15:50.200Z,0.00
2019-03-05T04:16:50.167Z,0.00
2019-03-05T04:17:50.158Z,0.00
2019-03-05T04:18:50.145Z,0.00
2019-03-05T04:19:50.139Z,0.00
2019-03-05T04:20:50.143Z,0.00
2019-03-05T04:21:50.115Z,0.00
2019-03-05T04:22:50.119Z,0.00
2019-03-05T04:23:50.086Z,0.00
2019-03-05T04:24:50.076Z,0.00
2019-03-05T04:25:50.089Z,0.00
2019-03-05T04:26:50.055Z,0.00
2019-03-05T04:27:50.051Z,0.00
2019-03-05T04:28:50.047Z,0.00
2019-03-05T04:29:50.032Z,0.00
2019-03-05T04:30:50.031Z,0.00
2019-03-05T04:31:50.007Z,0.00
2019-03-05T04:32:49.992Z,0.00
2019-03-05T04:33:49.981Z,0.00
2019-03-05T04:34:49.961Z,0.00
2019-03-05T04:35:49.968Z,0.00
2019-03-05T04:36:49.947Z,0.00
2019-03-05T04:37:49.946Z,0.00
2019-03-05T04:38:49.920Z,0.00
2019-03-05T04:39:49.920Z,0.00
2019-03-05T04:40:49.899Z,0.00
2019-03-05T04:41:49.972Z,0.00
2019-03-05T04:42:49.875Z,0.00
2019-03-05T04:43:49.869Z,0.00
2019-03-05T04:44:49.852Z,0.00
2019-03-05T04:45:49.852Z,0.00
2019-03-05T04:46:49.858Z,0.00
2019-03-05T04:47:49.824Z,0.00
2019-03-05T04:48:49.820Z,0.00
2019-03-05T04:49:49.799Z,0.00
2019-03-05T04:50:49.799Z,0.00
2019-03-05T04:51:49.901Z,0.00
2019-03-05T04:52:49.766Z,0.00
2019-03-05T04:53:49.758Z,0.00
2019-03-05T04:54:49.748Z,0.00
2019-03-05T04:55:49.734Z,0.00
2019-03-05T04:56:49.738Z,0.00
2019-03-05T04:57:49.709Z,0.00
2019-03-05T04:58:49.698Z,0.00
2019-03-05T04:59:49.687Z,0.00
2019-03-05T05:00:49.677Z,0.00
2019-03-05T05:01:49.689Z,0.00
2019-03-05T05:02:49.654Z,0.00
2019-03-05T05:03:49.647Z,0.00
2019-03-05T05:04:49.632Z,0.00
2019-03-05T05:05:49.624Z,0.00
2019-03-05T05:06:49.634Z,0.00
2019-03-05T05:07:49.597Z,0.00
2019-03-05T05:08:49.591Z,0.00
2019-03-05T05:09:49.575Z,0.00
2019-03-05T05:10:49.563Z,0.00
2019-03-05T05:11:49.550Z,0.00
2019-03-05T05:12:49.568Z,0.00
2019-03-05T05:13:49.543Z,0.00
2019-03-05T05:14:49.521Z,0.00
2019-03-05T05:15:49.504Z,0.00
2019-03-05T05:16:49.495Z,0.00
2019-03-05T05:17:49.499Z,0.00
2019-03-05T05:18:49.472Z,0.00
2019-03-05T05:19:49.461Z,0.00
2019-03-05T05:20:49.451Z,0.00
2019-03-05T05:21:49.434Z,4.00
2019-03-05T05:22:49.442Z,4.00
2019-03-05T05:23:49.428Z,4.00
2019-03-05T05:24:49.406Z,8.00
2019-03-05T05:25:49.398Z,4.00
2019-03-05T05:26:49.378Z,4.00
2019-03-05T05:27:49.381Z,4.00
2019-03-05T05:28:49.366Z,4.00
2019-03-05T05:29:49.348Z,8.00
2019-03-05T05:30:49.341Z,8.00
2019-03-05T05:31:49.325Z,12.00
2019-03-05T05:32:49.346Z,12.00
2019-03-05T05:33:49.303Z,16.00
2019-03-05T05:34:49.292Z,16.00
2019-03-05T05:35:49.276Z,24.00
2019-03-05T05:36:49.268Z,24.00
2019-03-05T05:37:49.277Z,28.00
2019-03-05T05:38:49.242Z,36.00
2019-03-05T05:39:49.234Z,36.00
2019-03-05T05:40:49.228Z,40.00
2019-03-05T05:41:49.223Z,48.00
2019-03-05T05:42:49.219Z,52.00
2019-03-05T05:43:49.191Z,52.00
2019-03-05T05:44:49.180Z,52.00
2019-03-05T05:45:49.174Z,48.00
2019-03-05T05:46:49.157Z,52.00
2019-03-05T05:47:49.162Z,68.00
2019-03-05T05:48:49.139Z,72.00
2019-03-05T05:49:49.124Z,84.00
2019-03-05T05:50:49.111Z,80.00
2019-03-05T05:51:49.098Z,72.00
2019-03-05T05:52:49.134Z,88.00
2019-03-05T05:53:49.087Z,104.00
2019-03-05T05:54:49.070Z,136.00
2019-03-05T05:55:49.069Z,144.00
2019-03-05T05:56:49.044Z,160.00
2019-03-05T05:57:49.035Z,172.00
2019-03-05T05:58:49.041Z,160.00
2019-03-05T05:59:49.014Z,196.00
2019-03-05T06:00:49.000Z,200.00
2019-03-05T06:01:48.986Z,224.00
2019-03-05T06:02:48.974Z,224.00
2019-03-05T06:03:48.984Z,212.00
2019-03-05T06:04:48.953Z,224.00
2019-03-05T06:05:48.951Z,236.00
2019-03-05T06:06:48.937Z,292.00
2019-03-05T06:07:48.920Z,308.00
2019-03-05T06:08:48.939Z,320.00
2019-03-05T06:09:48.897Z,308.00
2019-03-05T06:10:48.894Z,364.00
2019-03-05T06:11:48.884Z,368.00
2019-03-05T06:12:48.880Z,396.00
2019-03-05T06:13:48.876Z,348.00
2019-03-05T06:14:48.836Z,376.00
2019-03-05T06:15:48.828Z,500.00
2019-03-05T06:16:48.827Z,520.00
2019-03-05T06:17:48.802Z,592.00
2019-03-05T06:18:48.830Z,624.00
2019-03-05T06:19:48.792Z,568.00
2019-03-05T06:20:48.779Z,580.00
2019-03-05T06:21:48.765Z,688.00
2019-03-05T06:22:48.756Z,720.00
2019-03-05T06:23:48.776Z,796.00
2019-03-05T06:24:48.730Z,812.00
2019-03-05T06:25:48.730Z,788.00
2019-03-05T06:26:48.718Z,764.00
2019-03-05T06:27:48.693Z,816.00
2019-03-05T06:28:48.699Z,820.00
2019-03-05T06:29:48.672Z,916.00
2019-03-05T06:30:48.664Z,1040.00
2019-03-05T06:31:48.652Z,1012.00
2019-03-05T06:32:48.638Z,1124.00
2019-03-05T06:33:48.659Z,1272.00
2019-03-05T06:34:48.612Z,1196.00
2019-03-05T06:35:48.615Z,1356.00
2019-03-05T06:36:48.596Z,1380.00
2019-03-05T06:37:48.584Z,1428.00
2019-03-05T06:38:48.593Z,1504.00
2019-03-05T06:39:48.568Z,1504.00
2019-03-05T06:40:48.562Z,1516.00
2019-03-05T06:41:48.536Z,1516.00
2019-03-05T06:42:48.532Z,1460.00
2019-03-05T06:43:48.544Z,1356.00
2019-03-05T06:44:48.504Z,1560.00
2019-03-05T06:45:48.502Z,1572.00
2019-03-05T06:46:48.484Z,1556.00
2019-03-05T06:47:48.472Z,1444.00
2019-03-05T06:48:48.459Z,1640.00
2019-03-05T06:49:48.468Z,1504.00
2019-03-05T06:50:48.442Z,1448.00
2019-03-05T06:51:48.433Z,1420.00
2019-03-05T06:52:48.412Z,1364.00
2019-03-05T06:53:48.412Z,1636.00
2019-03-05T06:54:48.414Z,1924.00
2019-03-05T06:55:48.383Z,2004.00
2019-03-05T06:56:48.401Z,2104.00
2019-03-05T06:57:48.433Z,2496.00
2019-03-05T06:58:48.342Z,2604.00
2019-03-05T06:59:48.363Z,3112.00
2019-03-05T07:00:48.330Z,2736.00
2019-03-05T07:01:48.318Z,3140.00
2019-03-05T07:02:48.302Z,2628.00
2019-03-05T07:03:48.426Z,2680.00
2019-03-05T07:04:48.452Z,2668.00
2019-03-05T07:05:48.266Z,2628.00
2019-03-05T07:06:48.266Z,2628.00
2019-03-05T07:07:48.254Z,2596.00
2019-03-05T07:08:48.244Z,2576.00
2019-03-05T07:09:48.262Z,2504.00
2019-03-05T07:10:48.210Z,2504.00
2019-03-05T07:11:48.205Z,2512.00
2019-03-05T07:12:48.196Z,2584.00
2019-03-05T07:13:48.191Z,2460.00
2019-03-05T07:14:48.190Z,2392.00
2019-03-05T07:15:48.154Z,2428.00
2019-03-05T07:16:48.147Z,2324.00
2019-03-05T07:17:48.152Z,2220.00
2019-03-05T07:18:48.122Z,2408.00
2019-03-05T07:19:57.527Z,2412.00
2019-03-05T07:20:49.100Z,2376.00
2019-03-05T07:21:48.091Z,2436.00
2019-03-05T07:22:48.100Z,2532.00
2019-03-05T07:23:48.089Z,2584.00
2019-03-05T07:24:48.089Z,2492.00
2019-03-05T07:25:48.051Z,2548.00
2019-03-05T07:26:48.083Z,2636.00
2019-03-05T07:27:48.019Z,2480.00
2019-03-05T07:28:48.015Z,3036.00
2019-03-05T07:29:48.005Z,2744.00
2019-03-05T07:30:48.002Z,2900.00
2019-03-05T07:31:47.995Z,2724.00
2019-03-05T07:32:47.962Z,3712.00
2019-03-05T07:33:47.951Z,2704.00
2019-03-05T07:34:47.942Z,2724.00
2019-03-05T07:35:48.009Z,3300.00
2019-03-05T07:36:47.929Z,4176.00
2019-03-05T07:37:47.911Z,3688.00
2019-03-05T07:38:47.898Z,3720.00
2019-03-05T07:39:47.894Z,3840.00
2019-03-05T07:40:47.889Z,2788.00
2019-03-05T07:41:48.293Z,2856.00
2019-03-05T07:42:47.940Z,3724.00
2019-03-05T07:43:47.840Z,3764.00
2019-03-05T07:44:47.837Z,5080.00
2019-03-05T07:45:47.843Z,5092.00
2019-03-05T07:46:47.819Z,3836.00
2019-03-05T07:47:47.794Z,3604.00
2019-03-05T07:48:47.793Z,4956.00
2019-03-05T07:49:47.775Z,4912.00
2019-03-05T07:50:47.778Z,4240.00
2019-03-05T07:51:47.756Z,3372.00
2019-03-05T07:52:47.734Z,4692.00
2019-03-05T07:53:47.732Z,5472.00
2019-03-05T07:54:47.730Z,4908.00
2019-03-05T07:55:47.722Z,5868.00
2019-03-05T07:56:47.693Z,5476.00
2019-03-05T07:57:47.677Z,5452.00
2019-03-05T07:58:47.676Z,4320.00
2019-03-05T07:59:47.671Z,5300.00
2019-03-05T08:00:47.705Z,6476.00
2019-03-05T08:01:47.635Z,5720.00
2019-03-05T08:02:47.696Z,5080.00
2019-03-05T08:03:47.686Z,5152.00
2019-03-05T08:04:47.604Z,6480.00
2019-03-05T08:05:47.774Z,4832.00
2019-03-05T08:06:47.577Z,4032.00
2019-03-05T08:07:47.579Z,5440.00
2019-03-05T08:08:47.558Z,5592.00
2019-03-05T08:09:47.546Z,6476.00
2019-03-05T08:10:47.565Z,6504.00
2019-03-05T08:11:47.528Z,5424.00
2019-03-05T08:12:47.512Z,5812.00
2019-03-05T08:13:47.497Z,5792.00
2019-03-05T08:14:47.489Z,5224.00
2019-03-05T08:15:47.511Z,4664.00
2019-03-05T08:16:47.467Z,5092.00
2019-03-05T08:17:47.456Z,5604.00
2019-03-05T08:18:47.451Z,5744.00
2019-03-05T08:19:47.436Z,4828.00
2019-03-05T08:20:47.428Z,4892.00
2019-03-05T08:21:47.430Z,5156.00
2019-03-05T08:22:47.408Z,4088.00
2019-03-05T08:23:48.495Z,4856.00
2019-03-05T08:24:47.381Z,4112.00
2019-03-05T08:25:47.364Z,3648.00
2019-03-05T08:26:47.377Z,2968.00
2019-03-05T08:27:47.347Z,3836.00
2019-03-05T08:28:47.337Z,3124.00
2019-03-05T08:29:47.330Z,4500.00
2019-03-05T08:30:47.313Z,5664.00
2019-03-05T08:31:47.315Z,3308.00
2019-03-05T08:32:47.287Z,3580.00
2019-03-05T08:33:47.280Z,5700.00
2019-03-05T08:34:47.290Z,5040.00
2019-03-05T08:35:47.256Z,3852.00
2019-03-05T08:36:47.272Z,4308.00
2019-03-05T08:37:47.226Z,3488.00
2019-03-05T08:38:47.222Z,2540.00
2019-03-05T08:39:47.208Z,3284.00
2019-03-05T08:40:47.199Z,3816.00
2019-03-05T08:41:47.204Z,2812.00
2019-03-05T08:42:47.171Z,4704.00
2019-03-05T08:43:47.160Z,4308.00
2019-03-05T08:44:50.716Z,3032.00
2019-03-05T08:45:47.144Z,4008.00
2019-03-05T08:46:47.154Z,4488.00
2019-03-05T08:47:47.116Z,6180.00
2019-03-05T08:48:47.112Z,7412.00
2019-03-05T08:49:47.099Z,6488.00
2019-03-05T08:50:47.085Z,5840.00
2019-03-05T08:51:47.092Z,4252.00
2019-03-05T08:52:47.080Z,4248.00
2019-03-05T08:53:49.721Z,6712.00
2019-03-05T08:54:47.035Z,11552.00
2019-03-05T08:55:47.027Z,8636.00
2019-03-05T08:56:47.023Z,7136.00
2019-03-05T08:57:47.140Z,4724.00
2019-03-05T08:58:47.029Z,6408.00
2019-03-05T08:59:46.981Z,8080.00
2019-03-05T09:00:48.202Z,7212.00
2019-03-05T09:01:46.986Z,10656.00
2019-03-05T09:02:49.071Z,9424.00
2019-03-05T09:03:46.950Z,6736.00
2019-03-05T09:04:46.928Z,4556.00
2019-03-05T09:05:46.915Z,5388.00
2019-03-05T09:06:46.912Z,5508.00
2019-03-05T09:07:46.915Z,4992.00
2019-03-05T09:08:46.889Z,6308.00
2019-03-05T09:09:46.876Z,7056.00
2019-03-05T09:10:46.861Z,7540.00
2019-03-05T09:11:46.848Z,5292.00
2019-03-05T09:12:46.857Z,5008.00
2019-03-05T09:13:46.826Z,7396.00
2019-03-05T09:14:46.825Z,8784.00
2019-03-05T09:15:46.809Z,8812.00
2019-03-05T09:16:46.796Z,9204.00
2019-03-05T09:17:46.826Z,7988.00
2019-03-05T09:18:46.776Z,8728.00
2019-03-05T09:19:46.753Z,10060.00
2019-03-05T09:20:46.749Z,9220.00
2019-03-05T09:21:49.124Z,9876.00
2019-03-05T09:22:46.745Z,10272.00
2019-03-05T09:23:46.713Z,7764.00
2019-03-05T09:24:46.704Z,8576.00
2019-03-05T09:25:46.689Z,8276.00
2019-03-05T09:26:51.191Z,7108.00
2019-03-05T09:27:47.693Z,8572.00
2019-03-05T09:28:46.656Z,11224.00
2019-03-05T09:29:46.650Z,8752.00
2019-03-05T09:30:46.630Z,10280.00
2019-03-05T09:31:46.633Z,9416.00
2019-03-05T09:32:46.639Z,12224.00
2019-03-05T09:33:46.613Z,10176.00
2019-03-05T09:34:46.595Z,9696.00
2019-03-05T09:35:46.653Z,11840.00
2019-03-05T09:36:50.951Z,11496.00
2019-03-05T09:37:46.582Z,10800.00
2019-03-05T09:38:46.544Z,7408.00
2019-03-05T09:39:46.536Z,8500.00
2019-03-05T09:40:46.522Z,8856.00
2019-03-05T09:41:46.513Z,10868.00
2019-03-05T09:42:46.508Z,10928.00
2019-03-05T09:43:46.519Z,14624.00
2019-03-05T09:44:46.472Z,17344.00
2019-03-05T09:45:46.463Z,14152.00
2019-03-05T09:46:46.456Z,10124.00
2019-03-05T09:47:46.478Z,11108.00
2019-03-05T09:48:46.444Z,12204.00
2019-03-05T09:49:46.417Z,11340.00
2019-03-05T09:50:46.405Z,11720.00
2019-03-05T09:51:46.393Z,9340.00
2019-03-05T09:52:54.486Z,8908.00
2019-03-05T09:53:47.398Z,11040.00
2019-03-05T09:54:46.374Z,13120.00
2019-03-05T09:55:46.344Z,11012.00
2019-03-05T09:56:46.337Z,9288.00
2019-03-05T09:57:46.327Z,4552.00
2019-03-05T09:58:46.351Z,4464.00
2019-03-05T09:59:46.319Z,5476.00
2019-03-05T10:00:46.292Z,5344.00
2019-03-05T10:01:46.285Z,3244.00
2019-03-05T10:02:46.274Z,2932.00
2019-03-05T10:03:46.280Z,5640.00
2019-03-05T10:04:46.253Z,12740.00
2019-03-05T10:05:46.247Z,7612.00
2019-03-05T10:06:46.232Z,4512.00
2019-03-05T10:07:46.214Z,4464.00
2019-03-05T10:08:46.226Z,4328.00
2019-03-05T10:09:46.203Z,4076.00
2019-03-05T10:10:46.185Z,4620.00
2019-03-05T10:11:46.189Z,2656.00
2019-03-05T10:12:46.160Z,2724.00
2019-03-05T10:13:46.169Z,2644.00
2019-03-05T10:14:46.166Z,3348.00
2019-03-05T10:15:46.126Z,4296.00
2019-03-05T10:16:46.130Z,3016.00
2019-03-05T10:17:46.102Z,3752.00
2019-03-05T10:18:46.111Z,6004.00
2019-03-05T10:19:46.094Z,7740.00
2019-03-05T10:20:46.084Z,7160.00
2019-03-05T10:21:46.757Z,9516.00
2019-03-05T10:22:46.058Z,8692.00
2019-03-05T10:23:46.068Z,11044.00
2019-03-05T10:24:46.026Z,10180.00
2019-03-05T10:25:46.031Z,9436.00
2019-03-05T10:26:46.015Z,12012.00
2019-03-05T10:27:45.996Z,16560.00
2019-03-05T10:28:46.000Z,19904.00
2019-03-05T10:29:45.966Z,14956.00
2019-03-05T10:30:46.008Z,10652.00
2019-03-05T10:31:45.948Z,15960.00
2019-03-05T10:32:45.935Z,21760.00
2019-03-05T10:33:45.954Z,36000.00
2019-03-05T10:34:45.919Z,31136.00
2019-03-05T10:35:45.896Z,13632.00
2019-03-05T10:36:45.888Z,11836.00
2019-03-05T10:37:45.879Z,13408.00
2019-03-05T10:38:56.582Z,18976.00
2019-03-05T10:39:45.856Z,18208.00
2019-03-05T10:40:45.843Z,46528.00
2019-03-05T10:41:45.849Z,69184.00
2019-03-05T10:42:45.827Z,84960.00
2019-03-05T10:43:45.832Z,21248.00
2019-03-05T10:44:45.808Z,68672.00
2019-03-05T10:45:45.788Z,71904.00
2019-03-05T10:46:45.774Z,79872.00
2019-03-05T10:47:45.763Z,14904.00
2019-03-05T10:48:45.776Z,80672.00
2019-03-05T10:49:45.750Z,81312.00
2019-03-05T10:50:45.752Z,77536.00
2019-03-05T10:51:45.768Z,22848.00
2019-03-05T10:52:45.702Z,14840.00
2019-03-05T10:53:45.695Z,39296.00
2019-03-05T10:54:45.707Z,20288.00
2019-03-05T10:55:45.669Z,63584.00
2019-03-05T10:56:45.671Z,26176.00
2019-03-05T10:57:45.651Z,15980.00
2019-03-05T10:58:45.636Z,80608.00
2019-03-05T10:59:45.651Z,81984.00
2019-03-05T11:00:45.614Z,49312.00
2019-03-05T11:01:45.606Z,24768.00
2019-03-05T11:02:45.599Z,19008.00
2019-03-05T11:03:45.587Z,12720.00
2019-03-05T11:04:46.113Z,12740.00
2019-03-05T11:05:45.558Z,11176.00
2019-03-05T11:06:45.553Z,19040.00
2019-03-05T11:07:45.544Z,87232.00
2019-03-05T11:08:45.532Z,53440.00
2019-03-05T11:09:45.536Z,103424.00
2019-03-05T11:10:45.502Z,85568.00
2019-03-05T11:11:45.488Z,21248.00
2019-03-05T11:12:45.480Z,98048.00
2019-03-05T11:13:45.483Z,39904.00
2019-03-05T11:14:45.481Z,14272.00
2019-03-05T11:15:45.449Z,10108.00
2019-03-05T11:16:45.433Z,11404.00
2019-03-05T11:17:45.470Z,14292.00
2019-03-05T11:18:45.420Z,14060.00
2019-03-05T11:19:45.424Z,9628.00
2019-03-05T11:20:45.385Z,9804.00
2019-03-05T11:21:45.376Z,6656.00
2019-03-05T11:22:45.367Z,6804.00
2019-03-05T11:23:45.364Z,6132.00
2019-03-05T11:24:45.369Z,5488.00
2019-03-05T11:25:45.339Z,5944.00
2019-03-05T11:26:45.330Z,7104.00
2019-03-05T11:27:45.311Z,6936.00
2019-03-05T11:28:45.301Z,3872.00
2019-03-05T11:29:45.305Z,2956.00
2019-03-05T11:30:45.280Z,2448.00
2019-03-05T11:31:45.273Z,2876.00
2019-03-05T11:32:45.255Z,4100.00
2019-03-05T11:33:45.239Z,4876.00
2019-03-05T11:34:45.263Z,6068.00
2019-03-05T11:35:45.226Z,7428.00
2019-03-05T11:36:45.209Z,9840.00
2019-03-05T11:37:45.196Z,10912.00
2019-03-05T11:38:45.204Z,7048.00
2019-03-05T11:39:45.175Z,8572.00
2019-03-05T11:40:45.180Z,14968.00
2019-03-05T11:41:45.148Z,17024.00
2019-03-05T11:42:45.143Z,12672.00
2019-03-05T11:43:45.127Z,8572.00
2019-03-05T11:44:58.805Z,8676.00
2019-03-05T11:45:46.133Z,8360.00
2019-03-05T11:46:45.108Z,7432.00
2019-03-05T11:47:45.089Z,6520.00
2019-03-05T11:48:45.081Z,6508.00
2019-03-05T11:49:45.065Z,7404.00
2019-03-05T11:50:45.069Z,7252.00
2019-03-05T11:51:45.047Z,7576.00
2019-03-05T11:52:45.021Z,6472.00
2019-03-05T11:53:45.020Z,5392.00
2019-03-05T11:54:45.011Z,5328.00
2019-03-05T11:55:45.036Z,5052.00
2019-03-05T11:56:44.985Z,4152.00
2019-03-05T11:57:44.973Z,2948.00
2019-03-05T11:58:44.960Z,2628.00
2019-03-05T11:59:44.965Z,4096.00
2019-03-05T12:00:44.968Z,5264.00
2019-03-05T12:01:44.926Z,4952.00
2019-03-05T12:02:44.914Z,3264.00
2019-03-05T12:03:44.909Z,3560.00
2019-03-05T12:04:44.892Z,3816.00
2019-03-05T12:05:44.897Z,3424.00
2019-03-05T12:06:44.867Z,4432.00
2019-03-05T12:07:46.155Z,6924.00
2019-03-05T12:08:44.847Z,4884.00
2019-03-05T12:09:44.833Z,3760.00
2019-03-05T12:10:44.843Z,2532.00
2019-03-05T12:11:44.825Z,1996.00
2019-03-05T12:12:44.805Z,2472.00
2019-03-05T12:13:44.787Z,2484.00
2019-03-05T12:14:44.778Z,2192.00
2019-03-05T12:15:44.794Z,1960.00
2019-03-05T12:16:44.755Z,2096.00
2019-03-05T12:17:44.759Z,1856.00
2019-03-05T12:18:44.732Z,1876.00
2019-03-05T12:19:44.723Z,1720.00
2019-03-05T12:20:44.734Z,1488.00
2019-03-05T12:21:44.702Z,1552.00
2019-03-05T12:22:44.690Z,1720.00
2019-03-05T12:23:47.228Z,2168.00
2019-03-05T12:24:44.668Z,2996.00
2019-03-05T12:25:44.669Z,4572.00
2019-03-05T12:26:44.639Z,7108.00
2019-03-05T12:27:44.637Z,7148.00
2019-03-05T12:28:44.630Z,4728.00
2019-03-05T12:29:44.659Z,4556.00
2019-03-05T12:30:44.624Z,3976.00
2019-03-05T12:31:44.584Z,3388.00
2019-03-05T12:32:44.578Z,3508.00
2019-03-05T12:33:44.570Z,4540.00
2019-03-05T12:34:44.555Z,6584.00
2019-03-05T12:35:44.572Z,14952.00